sensor_id;sensor_type;location;lat;lon;timestamp;pressure;altitude;pressure_sealevel;temperature;humidity
47524;BME280;33253;42.144;25.884;2022-08-21T00:01:19;99728.59;;;27.08;63.58
47524;BME280;33253;42.144;25.884;2022-08-21T00:03:45;99734.03;;;27.05;63.73
47524;BME280;33253;42.144;25.884;2022-08-21T00:06:11;99727.34;;;26.96;63.74
47524;BME280;33253;42.144;25.884;2022-08-21T00:08:36;99725.91;;;26.89;65.00
47524;BME280;33253;42.144;25.884;2022-08-21T00:11:03;99712.84;;;26.85;65.37
47524;BME280;33253;42.144;25.884;2022-08-21T00:13:29;99725.75;;;26.92;65.53
47524;BME280;33253;42.144;25.884;2022-08-21T00:15:55;99717.69;;;26.95;66.04
47524;BME280;33253;42.144;25.884;2022-08-21T00:18:22;99720.38;;;26.94;66.70
47524;BME280;33253;42.144;25.884;2022-08-21T00:20:48;99710.00;;;26.89;66.79
47524;BME280;33253;42.144;25.884;2022-08-21T00:23:34;99713.44;;;26.91;66.92
47524;BME280;33253;42.144;25.884;2022-08-21T00:26:00;99702.09;;;26.88;66.57
47524;BME280;33253;42.144;25.884;2022-08-21T00:28:26;99684.72;;;26.82;66.40
47524;BME280;33253;42.144;25.884;2022-08-21T00:30:51;99679.69;;;26.76;67.80
47524;BME280;33253;42.144;25.884;2022-08-21T00:33:17;99686.63;;;26.78;67.92
47524;BME280;33253;42.144;25.884;2022-08-21T00:35:42;99685.03;;;26.74;68.02
47524;BME280;33253;42.144;25.884;2022-08-21T00:38:10;99688.47;;;26.76;68.33
47524;BME280;33253;42.144;25.884;2022-08-21T00:40:44;99676.16;;;26.75;68.28
47524;BME280;33253;42.144;25.884;2022-08-21T00:43:13;99669.09;;;26.76;68.37
47524;BME280;33253;42.144;25.884;2022-08-21T00:45:39;99681.13;;;26.83;68.41
47524;BME280;33253;42.144;25.884;2022-08-21T00:48:05;99683.16;;;26.76;68.89
47524;BME280;33253;42.144;25.884;2022-08-21T00:50:34;99666.03;;;26.63;69.42
47524;BME280;33253;42.144;25.884;2022-08-21T00:53:02;99656.31;;;26.43;69.47
47524;BME280;33253;42.144;25.884;2022-08-21T00:55:31;99682.25;;;26.55;69.94
47524;BME280;33253;42.144;25.884;2022-08-21T00:57:58;99676.69;;;26.41;70.28
47524;BME280;33253;42.144;25.884;2022-08-21T01:00:31;99688.81;;;26.46;69.85
47524;BME280;33253;42.144;25.884;2022-08-21T01:02:58;99686.38;;;26.42;70.17
47524;BME280;33253;42.144;25.884;2022-08-21T01:05:25;99687.31;;;26.39;70.82
47524;BME280;33253;42.144;25.884;2022-08-21T01:07:52;99698.16;;;26.33;71.12
47524;BME280;33253;42.144;25.884;2022-08-21T01:10:19;99702.69;;;26.31;70.61
47524;BME280;33253;42.144;25.884;2022-08-21T01:12:44;99676.91;;;26.14;71.11
47524;BME280;33253;42.144;25.884;2022-08-21T01:15:11;99691.34;;;26.27;70.99
47524;BME280;33253;42.144;25.884;2022-08-21T01:17:40;99680.53;;;26.34;70.39
47524;BME280;33253;42.144;25.884;2022-08-21T01:20:08;99690.59;;;26.46;70.49
47524;BME280;33253;42.144;25.884;2022-08-21T01:22:34;99640.69;;;26.37;71.20
47524;BME280;33253;42.144;25.884;2022-08-21T01:24:59;99675.69;;;26.66;71.16
47524;BME280;33253;42.144;25.884;2022-08-21T01:27:25;99663.47;;;26.61;71.58
47524;BME280;33253;42.144;25.884;2022-08-21T01:32:19;99634.97;;;26.68;72.77
47524;BME280;33253;42.144;25.884;2022-08-21T01:34:47;99647.56;;;26.84;72.54
47524;BME280;33253;42.144;25.884;2022-08-21T01:37:14;99638.81;;;26.82;72.35
47524;BME280;33253;42.144;25.884;2022-08-21T01:39:41;99643.25;;;26.81;72.17
47524;BME280;33253;42.144;25.884;2022-08-21T01:42:06;99633.50;;;26.82;71.88
47524;BME280;33253;42.144;25.884;2022-08-21T01:44:32;99616.56;;;26.65;70.94
47524;BME280;33253;42.144;25.884;2022-08-21T01:47:00;99623.06;;;26.78;70.83
47524;BME280;33253;42.144;25.884;2022-08-21T01:49:26;99614.13;;;26.81;71.53
47524;BME280;33253;42.144;25.884;2022-08-21T01:51:52;99576.34;;;26.57;71.99
47524;BME280;33253;42.144;25.884;2022-08-21T01:54:17;99604.84;;;26.71;71.84
47524;BME280;33253;42.144;25.884;2022-08-21T01:56:46;99603.13;;;26.70;72.27
47524;BME280;33253;42.144;25.884;2022-08-21T01:59:12;99602.41;;;26.66;72.59
47524;BME280;33253;42.144;25.884;2022-08-21T02:01:38;99599.59;;;26.69;72.78
47524;BME280;33253;42.144;25.884;2022-08-21T02:04:08;99601.41;;;26.69;73.08
47524;BME280;33253;42.144;25.884;2022-08-21T02:06:35;99616.44;;;26.68;72.92
47524;BME280;33253;42.144;25.884;2022-08-21T02:09:05;99607.81;;;26.63;73.88
47524;BME280;33253;42.144;25.884;2022-08-21T02:11:31;99606.22;;;26.59;73.97
47524;BME280;33253;42.144;25.884;2022-08-21T02:13:57;99612.41;;;26.59;74.79
47524;BME280;33253;42.144;25.884;2022-08-21T02:16:24;99582.88;;;26.48;74.79
47524;BME280;33253;42.144;25.884;2022-08-21T02:18:49;99607.81;;;26.63;74.90
47524;BME280;33253;42.144;25.884;2022-08-21T02:21:15;99624.75;;;26.59;75.03
47524;BME280;33253;42.144;25.884;2022-08-21T02:23:40;99584.25;;;26.36;75.28
47524;BME280;33253;42.144;25.884;2022-08-21T02:26:07;99624.09;;;26.54;75.16
47524;BME280;33253;42.144;25.884;2022-08-21T02:28:34;99630.47;;;26.50;75.69
47524;BME280;33253;42.144;25.884;2022-08-21T02:31:00;99575.31;;;26.18;75.49
47524;BME280;33253;42.144;25.884;2022-08-21T02:33:26;99630.91;;;26.39;76.28
47524;BME280;33253;42.144;25.884;2022-08-21T02:35:53;99637.31;;;26.33;76.77
47524;BME280;33253;42.144;25.884;2022-08-21T02:38:22;99638.44;;;26.27;77.21
47524;BME280;33253;42.144;25.884;2022-08-21T02:40:49;99621.00;;;26.22;77.07
47524;BME280;33253;42.144;25.884;2022-08-21T02:43:16;99635.38;;;26.16;77.12
47524;BME280;33253;42.144;25.884;2022-08-21T02:45:46;99638.53;;;25.80;78.89
47524;BME280;33253;42.144;25.884;2022-08-21T02:48:15;99630.28;;;25.65;79.19
47524;BME280;33253;42.144;25.884;2022-08-21T02:50:44;99630.75;;;25.53;79.82
47524;BME280;33253;42.144;25.884;2022-08-21T02:53:12;99606.47;;;25.43;79.31
47524;BME280;33253;42.144;25.884;2022-08-21T02:55:40;99634.97;;;25.59;79.23
47524;BME280;33253;42.144;25.884;2022-08-21T02:58:06;99627.09;;;25.57;78.62
47524;BME280;33253;42.144;25.884;2022-08-21T03:00:33;99638.66;;;25.55;78.59
47524;BME280;33253;42.144;25.884;2022-08-21T03:02:59;99619.28;;;25.54;77.61
47524;BME280;33253;42.144;25.884;2022-08-21T03:05:27;99619.44;;;25.49;77.55
47524;BME280;33253;42.144;25.884;2022-08-21T03:07:54;99654.47;;;25.78;77.03
47524;BME280;33253;42.144;25.884;2022-08-21T03:10:21;99673.69;;;25.82;77.80
47524;BME280;33253;42.144;25.884;2022-08-21T03:12:47;99673.03;;;25.53;78.96
47524;BME280;33253;42.144;25.884;2022-08-21T03:15:15;99689.25;;;24.93;82.68
47524;BME280;33253;42.144;25.884;2022-08-21T03:17:42;99700.44;;;24.75;83.87
47524;BME280;33253;42.144;25.884;2022-08-21T03:20:09;99695.31;;;24.16;88.26
47524;BME280;33253;42.144;25.884;2022-08-21T03:22:34;99710.88;;;23.96;89.99
47524;BME280;33253;42.144;25.884;2022-08-21T03:25:00;99692.34;;;23.37;93.05
47524;BME280;33253;42.144;25.884;2022-08-21T03:27:28;99718.09;;;23.57;92.59
47524;BME280;33253;42.144;25.884;2022-08-21T03:29:54;99719.94;;;23.55;89.95
47524;BME280;33253;42.144;25.884;2022-08-21T03:32:20;99704.50;;;23.08;90.72
47524;BME280;33253;42.144;25.884;2022-08-21T03:34:46;99688.63;;;22.78;88.87
47524;BME280;33253;42.144;25.884;2022-08-21T03:37:13;99731.63;;;22.77;88.04
47524;BME280;33253;42.144;25.884;2022-08-21T03:39:39;99743.88;;;22.42;88.08
47524;BME280;33253;42.144;25.884;2022-08-21T03:42:07;99703.59;;;22.40;88.00
47524;BME280;33253;42.144;25.884;2022-08-21T03:44:32;99746.72;;;22.71;86.45
47524;BME280;33253;42.144;25.884;2022-08-21T03:46:58;99756.44;;;22.67;86.17
47524;BME280;33253;42.144;25.884;2022-08-21T03:49:24;99744.78;;;22.41;86.36
47524;BME280;33253;42.144;25.884;2022-08-21T03:51:50;99750.66;;;22.13;86.96
47524;BME280;33253;42.144;25.884;2022-08-21T03:54:15;99755.09;;;22.10;87.02
47524;BME280;33253;42.144;25.884;2022-08-21T03:56:41;99768.03;;;22.19;86.18
47524;BME280;33253;42.144;25.884;2022-08-21T03:59:07;99751.41;;;22.19;86.49
47524;BME280;33253;42.144;25.884;2022-08-21T04:01:33;99768.13;;;22.16;86.22
47524;BME280;33253;42.144;25.884;2022-08-21T04:03:58;99762.53;;;22.30;85.92
47524;BME280;33253;42.144;25.884;2022-08-21T04:06:24;99761.75;;;22.26;86.07
47524;BME280;33253;42.144;25.884;2022-08-21T04:08:52;99760.50;;;22.43;85.35
47524;BME280;33253;42.144;25.884;2022-08-21T04:11:17;99727.75;;;22.19;85.01
47524;BME280;33253;42.144;25.884;2022-08-21T04:13:43;99763.28;;;22.35;84.83
47524;BME280;33253;42.144;25.884;2022-08-21T04:16:08;99760.13;;;22.21;85.70
47524;BME280;33253;42.144;25.884;2022-08-21T04:18:34;99757.50;;;22.19;85.93
47524;BME280;33253;42.144;25.884;2022-08-21T04:21:00;99773.94;;;22.29;85.31
47524;BME280;33253;42.144;25.884;2022-08-21T04:23:26;99717.06;;;21.86;85.31
47524;BME280;33253;42.144;25.884;2022-08-21T04:25:53;99766.38;;;22.56;84.22
47524;BME280;33253;42.144;25.884;2022-08-21T04:28:20;99768.81;;;22.64;84.06
47524;BME280;33253;42.144;25.884;2022-08-21T04:30:46;99766.81;;;22.36;84.40
47524;BME280;33253;42.144;25.884;2022-08-21T04:33:12;99757.63;;;22.54;83.76
47524;BME280;33253;42.144;25.884;2022-08-21T04:35:37;99761.72;;;22.67;82.81
47524;BME280;33253;42.144;25.884;2022-08-21T04:38:03;99763.94;;;22.83;82.86
47524;BME280;33253;42.144;25.884;2022-08-21T04:40:28;99756.66;;;22.94;81.40
47524;BME280;33253;42.144;25.884;2022-08-21T04:43:01;99759.00;;;22.70;81.77
47524;BME280;33253;42.144;25.884;2022-08-21T04:45:35;99762.94;;;22.88;80.86
47524;BME280;33253;42.144;25.884;2022-08-21T04:53:23;99765.91;;;23.10;80.44
47524;BME280;33253;42.144;25.884;2022-08-21T04:55:50;99770.09;;;23.19;79.72
47524;BME280;33253;42.144;25.884;2022-08-21T04:58:19;99774.72;;;23.42;78.84
47524;BME280;33253;42.144;25.884;2022-08-21T05:00:46;99769.50;;;23.41;78.34
47524;BME280;33253;42.144;25.884;2022-08-21T05:03:13;99748.69;;;23.32;76.28
47524;BME280;33253;42.144;25.884;2022-08-21T05:05:40;99765.84;;;23.47;77.80
47524;BME280;33253;42.144;25.884;2022-08-21T05:08:07;99757.97;;;23.77;76.48
47524;BME280;33253;42.144;25.884;2022-08-21T05:10:34;99756.06;;;23.82;74.71
47524;BME280;33253;42.144;25.884;2022-08-21T05:13:00;99759.88;;;23.71;73.97
47524;BME280;33253;42.144;25.884;2022-08-21T05:15:26;99739.72;;;23.70;73.58
47524;BME280;33253;42.144;25.884;2022-08-21T05:17:52;99756.69;;;23.92;72.93
47524;BME280;33253;42.144;25.884;2022-08-21T05:20:18;99754.16;;;23.87;72.46
47524;BME280;33253;42.144;25.884;2022-08-21T05:22:45;99746.09;;;23.93;72.76
47524;BME280;33253;42.144;25.884;2022-08-21T05:25:11;99714.84;;;23.79;72.03
47524;BME280;33253;42.144;25.884;2022-08-21T05:27:37;99750.63;;;24.18;72.09
47524;BME280;33253;42.144;25.884;2022-08-21T05:30:05;99752.84;;;24.32;71.05
47524;BME280;33253;42.144;25.884;2022-08-21T05:32:32;99748.78;;;24.20;71.06
47524;BME280;33253;42.144;25.884;2022-08-21T05:34:58;99754.94;;;24.49;70.77
47524;BME280;33253;42.144;25.884;2022-08-21T05:37:23;99755.84;;;24.76;68.90
47524;BME280;33253;42.144;25.884;2022-08-21T05:39:49;99744.88;;;24.89;68.85
47524;BME280;33253;42.144;25.884;2022-08-21T05:42:14;99744.13;;;25.10;67.92
47524;BME280;33253;42.144;25.884;2022-08-21T05:44:40;99740.16;;;25.24;66.96
47524;BME280;33253;42.144;25.884;2022-08-21T05:47:07;99738.78;;;25.12;65.85
47524;BME280;33253;42.144;25.884;2022-08-21T05:49:33;99734.41;;;25.11;66.02
47524;BME280;33253;42.144;25.884;2022-08-21T05:51:59;99735.84;;;25.21;65.26
47524;BME280;33253;42.144;25.884;2022-08-21T05:54:25;99737.22;;;25.31;65.98
47524;BME280;33253;42.144;25.884;2022-08-21T05:56:50;99734.88;;;25.49;66.74
47524;BME280;33253;42.144;25.884;2022-08-21T05:59:17;99728.91;;;25.44;64.08
47524;BME280;33253;42.144;25.884;2022-08-21T06:01:43;99746.75;;;25.35;65.04
47524;BME280;33253;42.144;25.884;2022-08-21T06:04:10;99747.69;;;25.34;65.20
47524;BME280;33253;42.144;25.884;2022-08-21T06:06:36;99716.19;;;25.28;65.58
47524;BME280;33253;42.144;25.884;2022-08-21T06:09:03;99739.19;;;25.26;66.19
47524;BME280;33253;42.144;25.884;2022-08-21T06:11:29;99740.03;;;25.27;65.45
47524;BME280;33253;42.144;25.884;2022-08-21T06:13:55;99734.97;;;25.46;67.28
47524;BME280;33253;42.144;25.884;2022-08-21T06:16:21;99734.88;;;25.73;64.49
47524;BME280;33253;42.144;25.884;2022-08-21T06:18:47;99725.56;;;25.86;64.61
47524;BME280;33253;42.144;25.884;2022-08-21T06:21:13;99724.97;;;26.02;62.87
47524;BME280;33253;42.144;25.884;2022-08-21T06:23:39;99739.31;;;26.18;63.67
47524;BME280;33253;42.144;25.884;2022-08-21T06:26:06;99728.50;;;26.24;62.26
47524;BME280;33253;42.144;25.884;2022-08-21T06:28:51;99719.91;;;26.41;62.25
47524;BME280;33253;42.144;25.884;2022-08-21T06:31:20;99727.34;;;26.54;62.04
47524;BME280;33253;42.144;25.884;2022-08-21T06:33:47;99726.66;;;26.48;61.55
47524;BME280;33253;42.144;25.884;2022-08-21T06:36:13;99730.16;;;26.49;60.41
47524;BME280;33253;42.144;25.884;2022-08-21T06:38:39;99730.47;;;26.63;63.19
47524;BME280;33253;42.144;25.884;2022-08-21T06:41:04;99723.88;;;26.74;61.30
47524;BME280;33253;42.144;25.884;2022-08-21T06:43:30;99724.34;;;26.84;61.48
47524;BME280;33253;42.144;25.884;2022-08-21T06:45:57;99726.66;;;26.91;61.63
47524;BME280;33253;42.144;25.884;2022-08-21T06:48:22;99723.19;;;26.91;60.67
47524;BME280;33253;42.144;25.884;2022-08-21T06:50:48;99720.34;;;26.95;62.81
47524;BME280;33253;42.144;25.884;2022-08-21T06:53:16;99722.47;;;27.08;59.99
47524;BME280;33253;42.144;25.884;2022-08-21T06:55:42;99724.31;;;27.06;62.03
47524;BME280;33253;42.144;25.884;2022-08-21T06:58:08;99722.72;;;27.02;60.17
47524;BME280;33253;42.144;25.884;2022-08-21T07:00:35;99721.91;;;27.00;60.09
47524;BME280;33253;42.144;25.884;2022-08-21T07:03:00;99719.13;;;27.03;61.51
47524;BME280;33253;42.144;25.884;2022-08-21T07:05:31;99726.28;;;27.01;61.41
47524;BME280;33253;42.144;25.884;2022-08-21T07:07:57;99732.31;;;27.04;60.02
47524;BME280;33253;42.144;25.884;2022-08-21T07:10:26;99729.06;;;26.98;63.30
47524;BME280;33253;42.144;25.884;2022-08-21T07:12:52;99730.06;;;27.16;61.22
47524;BME280;33253;42.144;25.884;2022-08-21T07:15:19;99725.22;;;27.05;59.13
47524;BME280;33253;42.144;25.884;2022-08-21T07:17:44;99719.25;;;27.20;60.36
47524;BME280;33253;42.144;25.884;2022-08-21T07:20:10;99705.41;;;27.34;58.81
47524;BME280;33253;42.144;25.884;2022-08-21T07:22:37;99710.59;;;27.56;59.75
47524;BME280;33253;42.144;25.884;2022-08-21T07:25:04;99714.41;;;27.70;62.30
47524;BME280;33253;42.144;25.884;2022-08-21T07:27:30;99700.09;;;27.74;58.76
47524;BME280;33253;42.144;25.884;2022-08-21T07:29:56;99679.00;;;27.71;60.16
47524;BME280;33253;42.144;25.884;2022-08-21T07:32:22;99694.47;;;27.99;58.15
47524;BME280;33253;42.144;25.884;2022-08-21T07:34:47;99696.19;;;28.19;59.46
47524;BME280;33253;42.144;25.884;2022-08-21T07:37:13;99700.91;;;28.32;56.03
47524;BME280;33253;42.144;25.884;2022-08-21T07:39:38;99699.41;;;28.44;57.90
47524;BME280;33253;42.144;25.884;2022-08-21T07:42:04;99670.84;;;28.31;56.21
47524;BME280;33253;42.144;25.884;2022-08-21T07:44:29;99685.22;;;28.45;57.80
47524;BME280;33253;42.144;25.884;2022-08-21T07:46:55;99670.47;;;28.56;55.47
47524;BME280;33253;42.144;25.884;2022-08-21T07:49:20;99671.63;;;28.70;53.11
47524;BME280;33253;42.144;25.884;2022-08-21T07:51:45;99675.28;;;28.85;53.55
47524;BME280;33253;42.144;25.884;2022-08-21T07:54:11;99648.16;;;28.78;55.16
47524;BME280;33253;42.144;25.884;2022-08-21T07:56:37;99658.22;;;28.89;54.79
47524;BME280;33253;42.144;25.884;2022-08-21T07:59:02;99652.34;;;28.82;54.35
47524;BME280;33253;42.144;25.884;2022-08-21T08:01:28;99634.94;;;28.77;52.90
47524;BME280;33253;42.144;25.884;2022-08-21T08:03:54;99608.84;;;28.67;52.70
47524;BME280;33253;42.144;25.884;2022-08-21T08:06:20;99649.06;;;28.95;54.08
47524;BME280;33253;42.144;25.884;2022-08-21T08:08:46;99644.38;;;28.82;54.48
47524;BME280;33253;42.144;25.884;2022-08-21T08:11:12;99649.69;;;28.82;52.60
47524;BME280;33253;42.144;25.884;2022-08-21T08:13:48;99644.31;;;28.84;54.22
47524;BME280;33253;42.144;25.884;2022-08-21T08:16:14;99638.22;;;28.82;54.00
47524;BME280;33253;42.144;25.884;2022-08-21T08:18:39;99637.69;;;28.75;52.69
47524;BME280;33253;42.144;25.884;2022-08-21T08:21:06;99625.72;;;28.66;53.51
47524;BME280;33253;42.144;25.884;2022-08-21T08:23:32;99626.50;;;28.68;53.33
47524;BME280;33253;42.144;25.884;2022-08-21T08:25:58;99630.91;;;28.69;53.40
47524;BME280;33253;42.144;25.884;2022-08-21T08:28:24;99627.41;;;28.69;53.74
47524;BME280;33253;42.144;25.884;2022-08-21T08:30:50;99625.44;;;28.72;55.06
47524;BME280;33253;42.144;25.884;2022-08-21T08:33:16;99623.44;;;28.76;52.48
47524;BME280;33253;42.144;25.884;2022-08-21T08:35:46;99609.09;;;28.80;52.37
47524;BME280;33253;42.144;25.884;2022-08-21T08:38:12;99605.25;;;28.86;53.00
47524;BME280;33253;42.144;25.884;2022-08-21T08:40:44;99611.66;;;28.82;52.26
47524;BME280;33253;42.144;25.884;2022-08-21T08:43:12;99573.69;;;28.62;55.18
47524;BME280;33253;42.144;25.884;2022-08-21T08:45:40;99598.63;;;28.77;56.89
47524;BME280;33253;42.144;25.884;2022-08-21T08:48:10;99601.44;;;28.74;53.94
47524;BME280;33253;42.144;25.884;2022-08-21T08:50:46;99596.28;;;28.71;53.05
47524;BME280;33253;42.144;25.884;2022-08-21T08:53:32;99596.97;;;28.75;52.93
47524;BME280;33253;42.144;25.884;2022-08-21T08:56:00;99594.09;;;28.62;53.29
47524;BME280;33253;42.144;25.884;2022-08-21T08:58:33;99599.41;;;28.27;54.74
47524;BME280;33253;42.144;25.884;2022-08-21T09:00:59;99602.19;;;28.06;55.73
47524;BME280;33253;42.144;25.884;2022-08-21T09:03:27;99603.47;;;27.97;56.08
47524;BME280;33253;42.144;25.884;2022-08-21T09:08:54;99604.84;;;27.50;57.21
47524;BME280;33253;42.144;25.884;2022-08-21T09:12:02;99603.59;;;27.38;59.11
47524;BME280;33253;42.144;25.884;2022-08-21T09:20:12;99612.78;;;27.50;65.40
47524;BME280;33253;42.144;25.884;2022-08-21T09:23:11;99623.84;;;27.01;68.34
47524;BME280;33253;42.144;25.884;2022-08-21T09:25:51;99612.56;;;26.13;70.83
47524;BME280;33253;42.144;25.884;2022-08-21T09:28:18;99622.72;;;25.32;74.79
47524;BME280;33253;42.144;25.884;2022-08-21T09:30:44;99616.56;;;25.08;77.59
47524;BME280;33253;42.144;25.884;2022-08-21T09:33:11;99584.81;;;25.10;78.19
47524;BME280;33253;42.144;25.884;2022-08-21T09:35:48;99615.81;;;25.28;78.37
47524;BME280;33253;42.144;25.884;2022-08-21T09:38:34;99616.78;;;25.26;78.26
47524;BME280;33253;42.144;25.884;2022-08-21T09:41:05;99627.41;;;25.24;77.26
47524;BME280;33253;42.144;25.884;2022-08-21T09:43:33;99627.41;;;25.00;78.90
47524;BME280;33253;42.144;25.884;2022-08-21T09:48:27;99602.28;;;25.14;78.85
47524;BME280;33253;42.144;25.884;2022-08-21T09:50:53;99622.03;;;25.03;77.74
47524;BME280;33253;42.144;25.884;2022-08-21T09:53:26;99639.72;;;25.25;76.23
47524;BME280;33253;42.144;25.884;2022-08-21T09:55:57;99600.31;;;24.95;76.90
47524;BME280;33253;42.144;25.884;2022-08-21T09:58:45;99623.19;;;24.95;76.78
47524;BME280;33253;42.144;25.884;2022-08-21T10:01:23;99596.75;;;24.71;77.20
47524;BME280;33253;42.144;25.884;2022-08-21T10:04:01;99629.63;;;24.87;76.84
47524;BME280;33253;42.144;25.884;2022-08-21T10:06:28;99633.19;;;24.86;76.85
47524;BME280;33253;42.144;25.884;2022-08-21T10:11:33;99624.78;;;24.75;78.40
47524;BME280;33253;42.144;25.884;2022-08-21T10:14:08;99643.06;;;24.80;79.54
47524;BME280;33253;42.144;25.884;2022-08-21T10:17:03;99635.88;;;24.58;80.91
47524;BME280;33253;42.144;25.884;2022-08-21T10:19:43;99641.69;;;24.43;81.14
47524;BME280;33253;42.144;25.884;2022-08-21T10:33:16;99634.84;;;24.10;84.17
47524;BME280;33253;42.144;25.884;2022-08-21T10:36:09;99633.75;;;23.87;85.63
47524;BME280;33253;42.144;25.884;2022-08-21T10:46:53;99608.38;;;24.13;83.58
47524;BME280;33253;42.144;25.884;2022-08-21T10:54:52;99625.53;;;23.98;83.41
47524;BME280;33253;42.144;25.884;2022-08-21T11:00:29;99624.88;;;23.90;82.56
47524;BME280;33253;42.144;25.884;2022-08-21T11:03:20;99604.72;;;23.89;82.81
47524;BME280;33253;42.144;25.884;2022-08-21T11:05:54;99617.59;;;24.00;82.23
47524;BME280;33253;42.144;25.884;2022-08-21T11:08:30;99608.28;;;23.88;82.86
47524;BME280;33253;42.144;25.884;2022-08-21T11:11:00;99610.25;;;24.10;81.66
47524;BME280;33253;42.144;25.884;2022-08-21T11:16:11;99592.97;;;23.71;85.18
47524;BME280;33253;42.144;25.884;2022-08-21T11:22:00;99590.50;;;23.95;83.08
47524;BME280;33253;42.144;25.884;2022-08-21T11:24:56;99592.66;;;24.10;82.26
47524;BME280;33253;42.144;25.884;2022-08-21T11:30:06;99587.78;;;24.25;79.39
47524;BME280;33253;42.144;25.884;2022-08-21T11:35:48;99562.59;;;24.41;78.51
47524;BME280;33253;42.144;25.884;2022-08-21T11:46:47;99551.22;;;25.13;74.94
47524;BME280;33253;42.144;25.884;2022-08-21T11:57:25;99539.09;;;25.31;72.18
47524;BME280;33253;42.144;25.884;2022-08-21T12:02:21;99520.06;;;25.67;68.56
47524;BME280;33253;42.144;25.884;2022-08-21T12:04:53;99485.09;;;25.61;71.09
47524;BME280;33253;42.144;25.884;2022-08-21T12:07:41;99519.00;;;25.94;67.71
47524;BME280;33253;42.144;25.884;2022-08-21T12:10:11;99513.03;;;26.11;66.55
47524;BME280;33253;42.144;25.884;2022-08-21T12:12:40;99514.59;;;26.15;65.51
47524;BME280;33253;42.144;25.884;2022-08-21T12:17:36;99498.25;;;26.46;67.12
47524;BME280;33253;42.144;25.884;2022-08-21T12:25:41;99464.22;;;27.34;63.83
47524;BME280;33253;42.144;25.884;2022-08-21T12:28:20;99454.69;;;27.49;59.50
47524;BME280;33253;42.144;25.884;2022-08-21T12:30:46;99477.47;;;27.71;58.87
47524;BME280;33253;42.144;25.884;2022-08-21T12:33:32;99476.91;;;28.34;60.87
47524;BME280;33253;42.144;25.884;2022-08-21T12:38:57;99477.81;;;28.51;55.61
47524;BME280;33253;42.144;25.884;2022-08-21T12:42:00;99458.81;;;28.58;58.17
47524;BME280;33253;42.144;25.884;2022-08-21T12:44:42;99460.00;;;29.02;56.47
47524;BME280;33253;42.144;25.884;2022-08-21T12:47:17;99447.00;;;29.30;54.83
47524;BME280;33253;42.144;25.884;2022-08-21T12:49:52;99437.97;;;29.16;54.09
47524;BME280;33253;42.144;25.884;2022-08-21T12:52:28;99444.22;;;29.47;52.59
47524;BME280;33253;42.144;25.884;2022-08-21T12:54:54;99436.13;;;29.79;52.17
47524;BME280;33253;42.144;25.884;2022-08-21T12:57:30;99446.25;;;30.03;51.70
47524;BME280;33253;42.144;25.884;2022-08-21T12:59:58;99440.19;;;30.15;52.82
47524;BME280;33253;42.144;25.884;2022-08-21T13:02:29;99433.06;;;30.30;49.73
47524;BME280;33253;42.144;25.884;2022-08-21T13:04:57;99451.28;;;30.67;49.98
47524;BME280;33253;42.144;25.884;2022-08-21T13:07:29;99448.72;;;30.93;47.14
47524;BME280;33253;42.144;25.884;2022-08-21T13:09:59;99447.22;;;30.89;48.03
47524;BME280;33253;42.144;25.884;2022-08-21T13:12:26;99446.31;;;31.03;47.70
47524;BME280;33253;42.144;25.884;2022-08-21T13:14:56;99438.16;;;31.06;46.36
47524;BME280;33253;42.144;25.884;2022-08-21T13:17:24;99450.16;;;31.13;46.22
47524;BME280;33253;42.144;25.884;2022-08-21T13:22:45;99449.56;;;30.66;46.33
47524;BME280;33253;42.144;25.884;2022-08-21T13:25:13;99425.41;;;30.55;46.59
47524;BME280;33253;42.144;25.884;2022-08-21T13:27:41;99438.72;;;30.96;47.34
47524;BME280;33253;42.144;25.884;2022-08-21T13:30:20;99445.00;;;30.95;45.72
47524;BME280;33253;42.144;25.884;2022-08-21T13:32:49;99441.06;;;30.45;46.36
47524;BME280;33253;42.144;25.884;2022-08-21T13:35:22;99447.22;;;30.74;48.60
47524;BME280;33253;42.144;25.884;2022-08-21T13:37:49;99441.38;;;30.96;45.52
47524;BME280;33253;42.144;25.884;2022-08-21T13:40:39;99439.91;;;30.78;43.87
47524;BME280;33253;42.144;25.884;2022-08-21T13:43:16;99432.66;;;30.94;46.21
47524;BME280;33253;42.144;25.884;2022-08-21T13:45:47;99440.34;;;30.99;48.36
47524;BME280;33253;42.144;25.884;2022-08-21T13:48:12;99432.78;;;31.20;45.32
47524;BME280;33253;42.144;25.884;2022-08-21T13:50:39;99421.88;;;31.10;46.34
47524;BME280;33253;42.144;25.884;2022-08-21T13:53:20;99420.28;;;30.93;47.96
47524;BME280;33253;42.144;25.884;2022-08-21T13:55:47;99393.03;;;30.46;48.44
47524;BME280;33253;42.144;25.884;2022-08-21T13:58:31;99400.66;;;30.38;47.95
47524;BME280;33253;42.144;25.884;2022-08-21T14:00:58;99419.19;;;30.11;48.02
47524;BME280;33253;42.144;25.884;2022-08-21T14:05:58;99418.41;;;30.23;48.99
47524;BME280;33253;42.144;25.884;2022-08-21T14:08:28;99427.44;;;29.92;53.36
47524;BME280;33253;42.144;25.884;2022-08-21T14:10:55;99413.47;;;29.58;53.15
47524;BME280;33253;42.144;25.884;2022-08-21T14:15:58;99427.69;;;29.57;55.12
47524;BME280;33253;42.144;25.884;2022-08-21T14:18:24;99417.50;;;28.86;57.70
47524;BME280;33253;42.144;25.884;2022-08-21T14:20:51;99421.00;;;28.71;57.98
47524;BME280;33253;42.144;25.884;2022-08-21T14:23:26;99419.91;;;28.41;59.02
47524;BME280;33253;42.144;25.884;2022-08-21T14:25:52;99420.94;;;28.39;58.43
47524;BME280;33253;42.144;25.884;2022-08-21T14:30:47;99402.31;;;28.23;60.38
47524;BME280;33253;42.144;25.884;2022-08-21T14:33:26;99407.34;;;28.12;58.47
47524;BME280;33253;42.144;25.884;2022-08-21T14:35:52;99395.41;;;28.03;60.31
47524;BME280;33253;42.144;25.884;2022-08-21T14:38:23;99418.19;;;28.07;58.92
47524;BME280;33253;42.144;25.884;2022-08-21T14:41:04;99399.16;;;27.81;60.03